createdAt,value
2018-09-10T00:01:18.128Z,6.13
2018-09-10T00:03:46.592Z,4.83
2018-09-10T00:06:15.085Z,8.37
2018-09-10T00:08:45.275Z,5.87
2018-09-10T00:11:13.761Z,5.73
2018-09-10T00:13:42.226Z,8.20
2018-09-10T00:16:10.715Z,9.13
2018-09-10T00:18:39.169Z,6.03
2018-09-10T00:21:07.660Z,8.93
2018-09-10T00:23:36.119Z,6.10
2018-09-10T00:26:04.613Z,8.00
2018-09-10T00:28:33.067Z,5.07
2018-09-10T00:31:01.809Z,4.33
2018-09-10T00:33:30.375Z,5.53
2018-09-10T00:35:58.841Z,4.70
2018-09-10T00:38:27.322Z,6.40
2018-09-10T00:40:55.856Z,6.20
2018-09-10T00:43:24.520Z,4.67
2018-09-10T00:45:52.998Z,6.27
2018-09-10T00:48:21.534Z,4.37
2018-09-10T00:50:50.009Z,4.50
2018-09-10T00:53:18.492Z,3.47
2018-09-10T00:55:46.993Z,3.47
2018-09-10T00:58:15.555Z,5.03
2018-09-10T01:00:44.012Z,4.63
2018-09-10T01:03:12.531Z,5.63
2018-09-10T01:05:41.067Z,4.60
2018-09-10T01:08:09.548Z,4.60
2018-09-10T01:10:38.041Z,4.37
2018-09-10T01:13:06.532Z,4.30
2018-09-10T01:15:35.111Z,3.43
2018-09-10T01:18:03.600Z,3.13
2018-09-10T01:20:32.068Z,6.60
2018-09-10T01:23:00.593Z,5.17
2018-09-10T01:25:29.052Z,7.17
2018-09-10T01:27:57.586Z,6.00
2018-09-10T01:30:26.059Z,7.50
2018-09-10T01:32:54.539Z,5.60
2018-09-10T01:35:23.044Z,4.57
2018-09-10T01:37:51.511Z,6.80
2018-09-10T01:40:19.992Z,5.03
2018-09-10T01:42:48.531Z,4.37
2018-09-10T01:45:17.094Z,4.77
2018-09-10T01:47:45.668Z,8.83
2018-09-10T01:50:14.337Z,5.27
2018-09-10T01:52:42.860Z,6.03
2018-09-10T01:55:11.343Z,3.80
2018-09-10T01:57:39.856Z,6.50
2018-09-10T02:00:08.323Z,4.07
2018-09-10T02:02:36.805Z,6.30
2018-09-10T02:05:05.590Z,7.63
2018-09-10T02:07:34.060Z,5.20
2018-09-10T02:10:02.558Z,3.97
2018-09-10T02:12:31.012Z,6.33
2018-09-10T02:14:59.516Z,3.63
2018-09-10T02:17:27.988Z,5.07
2018-09-10T02:19:56.488Z,6.20
2018-09-10T02:22:24.945Z,4.60
2018-09-10T02:24:53.506Z,5.60
2018-09-10T02:27:22.035Z,4.53
2018-09-10T02:29:50.454Z,6.87
2018-09-10T02:32:18.913Z,4.27
2018-09-10T02:34:47.411Z,6.50
2018-09-10T02:37:15.856Z,5.73
2018-09-10T02:39:44.336Z,6.90
2018-09-10T02:42:13.882Z,5.73
2018-09-10T02:44:42.381Z,4.90
2018-09-10T02:47:10.869Z,4.63
2018-09-10T02:49:39.352Z,4.53
2018-09-10T02:52:07.835Z,6.87
2018-09-10T02:54:36.307Z,8.07
2018-09-10T02:57:04.819Z,7.30
2018-09-10T02:59:33.326Z,8.47
2018-09-10T03:02:01.840Z,4.53
2018-09-10T03:04:30.285Z,4.07
2018-09-10T03:06:58.833Z,8.37
2018-09-10T03:09:27.318Z,5.00
2018-09-10T03:11:55.809Z,7.70
2018-09-10T03:14:24.276Z,5.30
2018-09-10T03:16:52.731Z,7.97
2018-09-10T03:19:21.224Z,4.77
2018-09-10T03:21:49.733Z,6.23
2018-09-10T03:24:18.250Z,4.43
2018-09-10T03:26:46.832Z,5.10
2018-09-10T03:29:15.325Z,5.07
2018-09-10T03:31:43.850Z,7.00
2018-09-10T03:34:12.345Z,7.70
2018-09-10T03:36:40.845Z,6.33
2018-09-10T03:39:10.064Z,6.47
2018-09-10T03:41:38.715Z,5.67
2018-09-10T03:44:07.231Z,5.17
2018-09-10T03:46:35.688Z,5.70
2018-09-10T03:49:04.191Z,6.50
2018-09-10T03:51:32.673Z,8.20
2018-09-10T03:54:01.161Z,6.17
2018-09-10T03:56:29.794Z,6.93
2018-09-10T03:58:58.233Z,6.60
2018-09-10T04:01:26.728Z,5.40
2018-09-10T04:03:55.257Z,6.13
2018-09-10T04:06:23.726Z,9.77
2018-09-10T04:08:52.258Z,6.03
2018-09-10T04:11:20.719Z,8.00
2018-09-10T04:13:49.356Z,8.63
2018-09-10T04:16:18.023Z,9.07
2018-09-10T04:18:46.954Z,7.67
2018-09-10T04:21:15.486Z,8.00
2018-09-10T04:23:44.088Z,7.90
2018-09-10T04:26:12.574Z,10.73
2018-09-10T04:28:41.050Z,7.30
2018-09-10T04:31:09.513Z,8.00
2018-09-10T04:33:37.979Z,6.83
2018-09-10T04:36:06.484Z,8.80
2018-09-10T04:38:35.005Z,6.67
2018-09-10T04:41:03.520Z,6.40
2018-09-10T04:43:32.054Z,7.33
2018-09-10T04:46:01.359Z,5.47
2018-09-10T04:48:30.114Z,5.20
2018-09-10T04:50:58.677Z,4.90
2018-09-10T04:53:27.283Z,10.93
2018-09-10T04:55:55.756Z,7.87
2018-09-10T04:58:24.214Z,10.00
2018-09-10T05:00:52.716Z,14.30
2018-09-10T05:03:21.231Z,12.33
2018-09-10T05:05:49.853Z,12.47
2018-09-10T05:08:18.317Z,15.00
2018-09-10T05:10:46.822Z,13.67
2018-09-10T05:13:15.308Z,13.57
2018-09-10T05:15:43.808Z,10.33
2018-09-10T05:18:12.344Z,11.77
2018-09-10T05:20:40.844Z,13.03
2018-09-10T05:23:09.349Z,11.90
2018-09-10T05:25:37.845Z,17.73
2018-09-10T05:28:06.346Z,19.67
2018-09-10T05:30:34.828Z,21.17
2018-09-10T05:33:03.312Z,42.47
2018-09-10T05:35:31.799Z,19.80
2018-09-10T05:38:00.317Z,25.50
2018-09-10T05:40:28.797Z,29.97
2018-09-10T05:42:57.285Z,30.00
2018-09-10T05:45:25.803Z,28.27
2018-09-10T05:47:54.339Z,32.13
2018-09-10T05:50:22.812Z,34.90
2018-09-10T05:52:51.296Z,27.40
2018-09-10T05:55:19.841Z,40.93
2018-09-10T05:57:48.333Z,38.30
2018-09-10T06:00:16.847Z,35.60
2018-09-10T06:02:45.365Z,28.90
2018-09-10T06:05:13.872Z,35.27
2018-09-10T06:07:42.451Z,28.13
2018-09-10T06:10:10.949Z,21.43
2018-09-10T06:12:39.473Z,41.33
2018-09-10T06:15:07.967Z,27.63
2018-09-10T06:17:36.477Z,29.50
2018-09-10T06:20:05.018Z,23.40
2018-09-10T06:22:33.496Z,27.53
2018-09-10T06:25:01.959Z,26.67
2018-09-10T06:27:30.483Z,23.77
2018-09-10T06:29:58.987Z,18.67
2018-09-10T06:32:27.475Z,57.50
2018-09-10T06:34:55.948Z,63.10
2018-09-10T06:37:24.453Z,41.10
2018-09-10T06:39:52.910Z,34.03
2018-09-10T06:42:21.396Z,24.83
2018-09-10T06:44:49.852Z,23.20
2018-09-10T06:47:18.348Z,18.13
2018-09-10T06:49:46.980Z,22.13
2018-09-10T06:52:15.475Z,20.10
2018-09-10T06:54:44.061Z,37.07
2018-09-10T06:57:12.621Z,26.97
2018-09-10T06:59:41.098Z,23.27
2018-09-10T07:02:09.668Z,11.20
2018-09-10T07:04:38.112Z,15.17
2018-09-10T07:07:06.640Z,20.17
2018-09-10T07:09:35.159Z,17.73
2018-09-10T07:12:03.661Z,11.30
2018-09-10T07:14:32.149Z,14.40
2018-09-10T07:17:00.713Z,8.27
2018-09-10T07:19:29.196Z,13.27
2018-09-10T07:21:57.692Z,6.67
2018-09-10T07:24:26.212Z,10.13
2018-09-10T07:26:54.639Z,14.27
2018-09-10T07:29:23.181Z,9.23
2018-09-10T07:31:51.663Z,9.90
2018-09-10T07:34:20.197Z,9.60
2018-09-10T07:36:48.663Z,8.20
2018-09-10T07:39:17.162Z,11.60
2018-09-10T07:41:45.654Z,8.07
2018-09-10T07:44:14.492Z,9.23
2018-09-10T07:46:43.019Z,8.23
2018-09-10T07:49:11.466Z,7.67
2018-09-10T07:51:39.915Z,7.30
2018-09-10T07:54:08.396Z,7.87
2018-09-10T07:56:36.855Z,8.87
2018-09-10T07:59:05.378Z,8.90
2018-09-10T08:01:33.923Z,8.93
2018-09-10T08:04:02.417Z,9.97
2018-09-10T08:06:30.924Z,6.80
2018-09-10T08:08:59.498Z,9.47
2018-09-10T08:11:29.800Z,7.50
2018-09-10T08:13:58.277Z,9.57
2018-09-10T08:16:26.826Z,18.43
2018-09-10T08:18:55.294Z,5.77
2018-09-10T08:21:23.772Z,10.37
2018-09-10T08:23:52.253Z,6.30
2018-09-10T08:26:20.712Z,6.73
2018-09-10T08:28:49.287Z,7.50
2018-09-10T08:31:18.299Z,6.03
2018-09-10T08:33:46.871Z,9.47
2018-09-10T08:36:15.380Z,9.00
2018-09-10T08:38:43.876Z,8.47
2018-09-10T08:41:12.332Z,7.40
2018-09-10T08:43:40.818Z,5.83
2018-09-10T08:46:09.332Z,4.13
2018-09-10T08:48:37.860Z,8.27
2018-09-10T08:51:06.328Z,8.13
2018-09-10T08:53:34.944Z,5.20
2018-09-10T08:56:03.532Z,7.07
2018-09-10T08:58:31.880Z,10.50
2018-09-10T09:01:00.408Z,5.67
2018-09-10T09:03:28.931Z,9.70
2018-09-10T09:05:57.435Z,5.47
2018-09-10T09:08:25.899Z,8.43
2018-09-10T09:10:54.397Z,5.23
2018-09-10T09:13:22.870Z,3.27
2018-09-10T09:15:51.396Z,5.33
2018-09-10T09:18:19.887Z,6.10
2018-09-10T09:21:04.883Z,19.97
2018-09-10T09:23:34.460Z,63.67
2018-09-10T09:26:02.883Z,42.93
2018-09-10T09:28:31.344Z,72.03
2018-09-10T09:30:59.849Z,26.40
2018-09-10T09:33:28.320Z,17.40
2018-09-10T09:37:06.033Z,57.43
2018-09-10T09:39:39.816Z,64.07
2018-09-10T09:42:13.836Z,63.33
2018-09-10T09:44:47.852Z,76.17
2018-09-10T09:47:16.349Z,28.43
2018-09-10T09:49:44.865Z,23.77
2018-09-10T09:52:13.644Z,22.93
2018-09-10T09:54:43.185Z,10.60
2018-09-10T09:57:11.644Z,25.83
2018-09-10T09:59:40.131Z,13.03
2018-09-10T10:02:14.148Z,7.30
2018-09-10T10:04:42.913Z,6.33
2018-09-10T10:07:11.373Z,8.40
2018-09-10T10:09:40.833Z,9.80
2018-09-10T10:12:09.415Z,10.20
2018-09-10T10:14:37.833Z,8.37
2018-09-10T10:17:06.343Z,6.00
2018-09-10T10:19:34.820Z,5.23
2018-09-10T10:22:03.338Z,9.13
2018-09-10T10:24:31.789Z,5.23
2018-09-10T10:27:00.332Z,9.53
2018-09-10T10:29:28.804Z,6.17
2018-09-10T10:31:57.272Z,9.00
2018-09-10T10:34:25.732Z,12.43
2018-09-10T10:36:54.223Z,6.13
2018-09-10T10:39:22.787Z,7.50
2018-09-10T10:41:51.252Z,8.20
2018-09-10T10:44:19.799Z,5.57
2018-09-10T10:46:48.336Z,4.80
2018-09-10T10:49:16.968Z,8.13
2018-09-10T10:51:45.452Z,6.00
2018-09-10T10:54:13.932Z,5.87
2018-09-10T10:56:42.408Z,8.93
2018-09-10T10:59:10.893Z,5.17
2018-09-10T11:01:39.385Z,9.83
2018-09-10T11:04:07.852Z,7.30
2018-09-10T11:06:36.345Z,5.77
2018-09-10T11:09:06.067Z,5.37
2018-09-10T11:11:34.645Z,5.50
2018-09-10T11:14:03.396Z,13.37
2018-09-10T11:16:32.023Z,5.40
2018-09-10T11:19:00.680Z,7.47
2018-09-10T11:21:29.247Z,7.07
2018-09-10T11:23:57.728Z,6.47
2018-09-10T11:26:26.203Z,7.33
2018-09-10T11:28:54.657Z,15.50
2018-09-10T11:31:23.136Z,9.73
2018-09-10T11:33:54.471Z,5.10
2018-09-10T11:36:23.205Z,7.77
2018-09-10T11:38:51.687Z,9.67
2018-09-10T11:41:20.149Z,6.60
2018-09-10T11:43:48.639Z,6.27
2018-09-10T11:46:17.125Z,13.03
2018-09-10T11:48:45.592Z,7.70
2018-09-10T11:51:14.042Z,11.93
2018-09-10T11:53:42.524Z,5.43
2018-09-10T11:56:10.986Z,9.43
2018-09-10T11:58:39.456Z,7.00
2018-09-10T12:01:08.079Z,3.97
2018-09-10T12:03:36.582Z,3.93
2018-09-10T12:06:05.075Z,5.63
2018-09-10T12:08:33.637Z,7.40
2018-09-10T12:11:02.072Z,7.93
2018-09-10T12:13:30.609Z,5.17
2018-09-10T12:15:59.051Z,11.67
2018-09-10T12:18:27.528Z,5.47
2018-09-10T12:20:56.004Z,4.47
2018-09-10T12:23:24.581Z,6.20
2018-09-10T12:25:53.176Z,4.97
2018-09-10T12:28:21.653Z,11.17
2018-09-10T12:30:50.112Z,5.13
2018-09-10T12:33:18.600Z,3.97
2018-09-10T12:35:47.119Z,3.67
2018-09-10T12:38:15.624Z,8.13
2018-09-10T12:40:44.216Z,6.87
2018-09-10T12:43:12.705Z,8.23
2018-09-10T12:45:41.212Z,4.07
2018-09-10T12:48:09.688Z,7.23
2018-09-10T12:50:38.168Z,8.63
2018-09-10T12:53:21.398Z,2.93
2018-09-10T12:55:49.893Z,11.27
2018-09-10T12:58:18.372Z,5.97
2018-09-10T13:00:46.901Z,2.77
2018-09-10T13:03:15.417Z,6.53
2018-09-10T13:05:44.104Z,4.37
2018-09-10T13:08:12.592Z,7.53
2018-09-10T13:10:41.257Z,2.83
2018-09-10T13:13:09.699Z,4.40
2018-09-10T13:15:38.411Z,5.27
2018-09-10T13:18:07.742Z,5.10
2018-09-10T13:20:36.253Z,3.87
2018-09-10T13:23:04.734Z,5.30
2018-09-10T13:25:33.201Z,4.47
2018-09-10T13:28:01.740Z,3.13
2018-09-10T13:30:30.374Z,3.97
2018-09-10T13:32:58.850Z,5.23
2018-09-10T13:35:27.334Z,5.43
2018-09-10T13:37:55.813Z,4.87
2018-09-10T13:40:24.305Z,2.10
2018-09-10T13:42:52.770Z,2.47
2018-09-10T13:45:21.278Z,3.77
2018-09-10T13:47:49.734Z,7.67
2018-09-10T13:50:18.297Z,3.50
2018-09-10T13:52:46.841Z,6.27
2018-09-10T13:55:15.332Z,8.10
2018-09-10T13:57:43.794Z,3.53
2018-09-10T14:00:12.344Z,5.80
2018-09-10T14:02:40.871Z,4.63
2018-09-10T14:05:09.348Z,7.70
2018-09-10T14:07:37.809Z,5.20
2018-09-10T14:10:06.291Z,3.10
2018-09-10T14:12:34.737Z,7.63
2018-09-10T14:15:03.246Z,14.60
2018-09-10T14:17:31.719Z,21.87
2018-09-10T14:20:00.189Z,45.47
2018-09-10T14:22:28.689Z,21.00
2018-09-10T14:24:57.233Z,27.53
2018-09-10T14:27:25.741Z,22.27
2018-09-10T14:29:54.210Z,23.17
2018-09-10T14:32:22.683Z,33.80
2018-09-10T14:34:51.234Z,58.70
2018-09-10T14:37:19.721Z,39.10
2018-09-10T14:39:48.213Z,15.97
2018-09-10T14:42:16.697Z,23.83
2018-09-10T14:44:45.172Z,15.37
2018-09-10T14:47:13.679Z,16.70
2018-09-10T14:49:42.221Z,11.40
2018-09-10T14:52:10.679Z,7.78
2018-09-10T14:54:39.160Z,7.53
2018-09-10T14:57:08.053Z,8.50
2018-09-10T14:59:36.549Z,9.53
2018-09-10T15:02:05.052Z,5.90
2018-09-10T15:04:33.565Z,5.75
2018-09-10T15:07:02.102Z,6.97
2018-09-10T15:09:30.602Z,4.72
2018-09-10T15:11:59.121Z,4.08
2018-09-10T15:14:27.652Z,3.52
2018-09-10T15:16:56.154Z,6.75
2018-09-10T15:19:24.888Z,7.15
2018-09-10T15:21:53.445Z,23.20
2018-09-10T15:24:22.135Z,36.03
2018-09-10T15:26:50.628Z,39.60
2018-09-10T15:29:19.157Z,52.03
2018-09-10T15:31:49.023Z,63.40
2018-09-10T15:34:17.628Z,36.45
2018-09-10T15:36:46.133Z,26.83
2018-09-10T15:40:18.058Z,23.55
2018-09-10T15:42:46.608Z,29.90
2018-09-10T15:45:15.392Z,16.87
2018-09-10T15:47:43.983Z,15.93
2018-09-10T15:50:12.477Z,18.40
2018-09-10T15:52:41.071Z,12.00
2018-09-10T15:55:09.548Z,13.93
2018-09-10T15:57:38.094Z,16.37
2018-09-10T16:00:07.117Z,11.37
2018-09-10T16:02:35.444Z,15.23
2018-09-10T16:05:03.947Z,7.80
2018-09-10T16:07:32.422Z,17.60
2018-09-10T16:10:01.035Z,41.27
2018-09-10T16:12:29.528Z,52.40
2018-09-10T16:14:58.172Z,85.70
2018-09-10T16:17:26.640Z,49.63
2018-09-10T16:19:55.165Z,46.10
2018-09-10T16:22:23.665Z,119.80
2018-09-10T16:24:53.324Z,85.57
2018-09-10T16:27:21.822Z,74.90
2018-09-10T16:29:50.290Z,34.23
2018-09-10T16:32:18.787Z,34.77
2018-09-10T16:34:47.328Z,25.70
2018-09-10T16:37:15.812Z,26.23
2018-09-10T16:39:44.345Z,26.87
2018-09-10T16:42:12.864Z,28.67
2018-09-10T16:44:41.376Z,22.73
2018-09-10T16:47:09.889Z,15.53
2018-09-10T16:49:38.408Z,11.83
2018-09-10T16:52:06.876Z,15.27
2018-09-10T16:54:35.472Z,7.73
2018-09-10T16:57:03.902Z,13.87
2018-09-10T16:59:32.400Z,11.30
2018-09-10T17:02:00.908Z,14.23
2018-09-10T17:04:29.420Z,11.00
2018-09-10T17:06:57.872Z,9.57
2018-09-10T17:09:26.348Z,14.33
2018-09-10T17:11:54.816Z,17.13
2018-09-10T17:14:23.361Z,29.03
2018-09-10T17:16:51.885Z,109.90
2018-09-10T17:19:20.392Z,177.87
2018-09-10T17:21:49.058Z,117.17
2018-09-10T17:24:17.667Z,138.30
2018-09-10T17:26:46.205Z,28.50
2018-09-10T17:29:14.806Z,60.70
2018-09-10T17:31:43.377Z,48.57
2018-09-10T17:34:11.877Z,33.70
2018-09-10T17:36:40.372Z,103.40
2018-09-10T17:39:08.919Z,23.33
2018-09-10T17:41:37.416Z,71.97
2018-09-10T17:44:06.085Z,38.07
2018-09-10T17:46:34.945Z,43.43
2018-09-10T17:49:03.458Z,20.80
2018-09-10T17:51:32.124Z,33.13
2018-09-10T17:54:00.672Z,18.87
2018-09-10T17:56:29.187Z,22.80
2018-09-10T17:58:57.708Z,28.67
2018-09-10T18:01:26.204Z,23.53
2018-09-10T18:03:54.722Z,22.63
2018-09-10T18:06:23.260Z,12.70
2018-09-10T18:08:51.789Z,64.43
2018-09-10T18:11:20.288Z,47.83
2018-09-10T18:13:49.039Z,23.87
2018-09-10T18:16:17.530Z,41.20
2018-09-10T18:18:46.599Z,138.13
2018-09-10T18:21:15.105Z,64.77
2018-09-10T18:23:43.749Z,25.53
2018-09-10T18:26:12.242Z,72.17
2018-09-10T18:28:40.729Z,61.13
2018-09-10T18:31:09.329Z,34.97
2018-09-10T18:33:37.798Z,17.03
2018-09-10T18:36:06.408Z,21.90
2018-09-10T18:38:34.920Z,26.03
2018-09-10T18:41:03.504Z,13.10
2018-09-10T18:43:32.034Z,11.50
2018-09-10T18:46:01.061Z,59.23
2018-09-10T18:48:29.536Z,38.87
2018-09-10T18:50:58.082Z,35.80
2018-09-10T18:53:26.556Z,85.17
2018-09-10T18:55:55.093Z,72.73
2018-09-10T18:58:23.598Z,68.53
2018-09-10T19:00:52.263Z,32.80
2018-09-10T19:03:20.692Z,111.77
2018-09-10T19:05:49.208Z,43.73
2018-09-10T19:08:18.666Z,72.17
2018-09-10T19:10:47.192Z,25.10
2018-09-10T19:13:15.679Z,78.33
2018-09-10T19:15:44.169Z,26.77
2018-09-10T19:18:12.713Z,37.00
2018-09-10T19:20:41.183Z,33.67
2018-09-10T19:23:09.797Z,43.53
2018-09-10T19:25:38.374Z,33.50
2018-09-10T19:28:06.919Z,20.60
2018-09-10T19:30:35.481Z,37.53
2018-09-10T19:33:04.036Z,60.27
2018-09-10T19:35:32.725Z,17.67
2018-09-10T19:38:01.687Z,10.60
2018-09-10T19:40:30.198Z,28.70
2018-09-10T19:42:58.741Z,20.17
2018-09-10T19:45:27.253Z,75.57
2018-09-10T19:47:55.824Z,58.23
2018-09-10T19:50:24.316Z,83.43
2018-09-10T19:52:52.880Z,41.00
2018-09-10T19:55:21.407Z,140.37
2018-09-10T19:57:49.912Z,41.37
2018-09-10T20:00:18.645Z,39.00
2018-09-10T20:02:48.102Z,58.20
2018-09-10T20:05:16.593Z,36.43
2018-09-10T20:07:45.125Z,22.60
2018-09-10T20:10:13.638Z,15.90
2018-09-10T20:12:42.201Z,10.47
2018-09-10T20:15:10.791Z,21.53
2018-09-10T20:17:39.263Z,14.77
2018-09-10T20:20:07.970Z,13.70
2018-09-10T20:22:36.508Z,13.67
2018-09-10T20:25:05.056Z,19.90
2018-09-10T20:27:33.600Z,10.17
2018-09-10T20:30:02.198Z,24.83
2018-09-10T20:32:30.720Z,21.53
2018-09-10T20:34:59.204Z,12.53
2018-09-10T20:37:27.742Z,11.37
2018-09-10T20:39:56.231Z,15.17
2018-09-10T20:42:24.932Z,6.60
2018-09-10T20:44:53.414Z,8.87
2018-09-10T20:47:21.923Z,11.80
2018-09-10T20:49:50.436Z,8.93
2018-09-10T20:52:19.105Z,10.83
2018-09-10T20:54:47.458Z,12.67
2018-09-10T20:57:15.960Z,14.23
2018-09-10T20:59:44.447Z,78.47
2018-09-10T21:02:12.931Z,37.83
2018-09-10T21:04:42.197Z,58.83
2018-09-10T21:07:10.700Z,30.90
2018-09-10T21:09:39.196Z,52.60
2018-09-10T21:12:07.673Z,38.80
2018-09-10T21:14:36.170Z,93.27
2018-09-10T21:17:04.743Z,23.63
2018-09-10T21:19:33.236Z,32.07
2018-09-10T21:22:01.784Z,35.77
2018-09-10T21:24:31.792Z,29.20
2018-09-10T21:27:01.072Z,12.10
2018-09-10T21:29:29.552Z,35.17
2018-09-10T21:32:00.623Z,19.70
2018-09-10T21:34:30.020Z,18.97
2018-09-10T21:37:00.395Z,10.77
2018-09-10T21:39:29.040Z,23.87
2018-09-10T21:41:57.612Z,15.13
2018-09-10T21:44:26.166Z,26.50
2018-09-10T21:46:54.727Z,18.80
2018-09-10T21:49:26.108Z,27.30
2018-09-10T21:51:54.873Z,29.33
2018-09-10T21:54:25.448Z,12.83
2018-09-10T21:56:55.013Z,21.50
2018-09-10T21:59:24.536Z,23.20
2018-09-10T22:01:53.021Z,12.10
2018-09-10T22:04:21.508Z,23.47
2018-09-10T22:06:51.084Z,27.30
2018-09-10T22:09:20.598Z,13.53
2018-09-10T22:11:55.404Z,12.97
2018-09-10T22:14:24.160Z,14.13
2018-09-10T22:16:56.137Z,13.27
2018-09-10T22:19:29.616Z,13.13
2018-09-10T22:21:58.123Z,14.77
2018-09-10T22:24:27.814Z,12.73
2018-09-10T22:26:56.249Z,11.70
2018-09-10T22:29:26.790Z,8.93
2018-09-10T22:32:00.156Z,11.83
2018-09-10T22:34:29.663Z,11.03
2018-09-10T22:36:59.339Z,7.87
2018-09-10T22:39:33.037Z,12.83
2018-09-10T22:42:03.633Z,9.13
2018-09-10T22:44:32.178Z,12.47
2018-09-10T22:47:00.625Z,8.27
2018-09-10T22:49:29.124Z,8.30
2018-09-10T22:51:58.672Z,7.60
2018-09-10T22:54:28.532Z,11.67
2018-09-10T22:56:57.010Z,12.83
2018-09-10T22:59:25.624Z,18.33
2018-09-10T23:01:54.104Z,16.30
2018-09-10T23:04:23.638Z,13.93
2018-09-10T23:06:52.548Z,16.17
2018-09-10T23:09:21.064Z,15.80
2018-09-10T23:11:49.587Z,15.00
2018-09-10T23:14:18.083Z,9.23
2018-09-10T23:16:46.558Z,11.57
2018-09-10T23:19:15.040Z,12.00
2018-09-10T23:21:43.560Z,12.83
2018-09-10T23:24:12.055Z,11.43
2018-09-10T23:26:40.559Z,8.03
2018-09-10T23:29:09.067Z,13.17
2018-09-10T23:31:37.551Z,10.07
2018-09-10T23:34:08.209Z,9.77
2018-09-10T23:36:36.697Z,8.87
2018-09-10T23:39:06.645Z,11.47
2018-09-10T23:41:35.148Z,7.90
2018-09-10T23:44:04.628Z,7.90
2018-09-10T23:46:33.147Z,7.30
2018-09-10T23:49:02.846Z,9.70
2018-09-10T23:51:31.494Z,10.60
2018-09-10T23:54:00.004Z,8.83
2018-09-10T23:56:29.543Z,9.40
2018-09-10T23:58:59.116Z,8.03
